Temp     Hi    Low   Out    Dew  Wind  Wind   Wind    Hi    Hi   Wind   Heat    THW   THSW                Rain  Solar   Solar Hi Solar   UV    UV    Hi     Heat    Cool    In     In    In     In     In   In Air          Wind  Wind    ISS   Arc.
  Date    Time     Out   Temp   Temp   Hum    Pt. Speed   Dir    Run Speed   Dir  Chill  Index  Index  Index   Bar    Rain  Rate   Rad.  Energy    Rad.  Index  Dose   UV     D-D     D-D    Temp   Hum    Dew   Heat    EMC Density     ET   Samp   Tx   Recept  Int.
------------------------------------------------------------------------------------------------------------------------------------------------------------------------------------------------------------------------------------------------------------------------
12/08/18 12:30a   36.8   37.7   36.8    89   33.9   3.0     S   1.50   5.0     S   34.7   36.7   34.6   29.8  30.318  0.00  0.00     0     0.00      0     0.0  0.00   0.0   0.588   0.000   69.0    40   43.7   66.6   7.77  .0753    0.000   673    2    100.0   30 
12/08/18  1:00a   35.1   36.8   35.1    89   32.2   4.0     S   2.00   7.0     S   31.7   35.0   31.6   26.8  30.321  0.00  0.00     0     0.00      0     0.0  0.00   0.0   0.623   0.000   68.5    40   43.2   66.1   7.78  .0754    0.000   683    2    100.0   30 
12/08/18  1:30a   34.1   35.1   34.1    89   31.2   5.0     S   2.50   8.0     S   29.5   33.9   29.3   24.5  30.330  0.00  0.00     0     0.00      0     0.0  0.00   0.0   0.644   0.000   67.9    39   42.0   65.4   7.69  .0756    0.000   672    2    100.0   30 
12/08/18  2:00a   33.7   34.2   33.7    89   30.8   5.0     S   2.50   7.0     S   29.1   33.5   28.9   24.0  30.336  0.00  0.00     0     0.00      0     0.0  0.00   0.0   0.652   0.000   67.4    39   41.6   64.8   7.70  .0757    0.000   680    2    100.0   30 
12/08/18  2:30a   34.0   34.0   33.5    87   30.5   5.0     S   2.50   8.0     S   29.4   33.7   29.1   24.2  30.345  0.00  0.00     0     0.00    ---     0.0  0.00   ---   0.646   0.000   66.9    39   41.1   64.3   7.71  .0758    0.000   684    2    100.0   30 
12/08/18  3:00a   33.4   34.3   33.4    87   29.9   5.0     S   2.50   8.0     S   28.7   33.2   28.5    ---  30.348  0.00  0.00   ---      ---    ---     ---   ---   ---   0.658   0.000   66.4    39   40.7   63.7   7.72  .0759    0.000   684    2    100.0   30 
12/08/18  3:30a   32.2   33.5   32.2    87   28.8   5.0   SSE   2.50   7.0   SSE   27.3   32.0   27.1    ---  30.353  0.00  0.00   ---      ---    ---     ---   ---   ---   0.683   0.000   65.9    39   40.2   63.2   7.73  .0760    0.000   671    2    100.0   30 
12/08/18  4:00a   32.4   32.7   32.2    87   29.0   5.0     S   2.50   9.0     S   27.5   32.2   27.3    ---  30.353  0.00  0.00   ---      ---    ---     ---   ---   ---   0.679   0.000   65.6    39   40.0   62.9   7.74  .0760    0.000   677    2    100.0   30 
12/08/18  4:30a   32.2   32.7   32.2    87   28.8   3.0     S   1.50   9.0     S   29.5   32.0   29.3    ---  30.361  0.00  0.00   ---      ---    ---     ---   ---   ---   0.683   0.000   65.1    39   39.5   62.4   7.75  .0761    0.000   683    2    100.0   30 
12/08/18  5:00a   31.6   32.2   31.6    88   28.5   4.0     S   2.00   8.0     S   27.6   31.4   27.4    ---  30.368  0.00  0.00   ---      ---    ---     ---   ---   ---   0.696   0.000   64.8    39   39.2   62.1   7.75  .0762    0.000   683    2    100.0   30 
12/08/18  5:30a   32.7   32.7   31.6    88   29.5   3.0   SSE   1.50   5.0   SSE   30.1   32.5   29.9    ---  30.374  0.00  0.00   ---      ---    ---     ---   ---   ---   0.673   0.000   64.5    39   39.0   61.7   7.74  .0763    0.000   679    2    100.0   30 
12/08/18  6:00a   32.9   32.9   32.7    88   29.7   2.0   SSE   1.00   4.0   SSE   32.0   32.7   31.8    ---  30.376  0.00  0.00   ---      ---    ---     ---   ---   ---   0.669   0.000   64.0    38   37.9   61.1   7.55  .0764    0.000   673    2    100.0   30 
12/08/18  6:30a   31.3   32.9   31.3    87   27.9   3.0     S   1.50   5.0     S   28.5   31.1   28.3    ---  30.377  0.00  0.00   ---      ---    ---     ---   ---   ---   0.702   0.000   63.8    38   37.7   60.9   7.55  .0764    0.000   561    2     84.1   30 
12/08/18  7:00a   30.4   31.3   30.4    88   27.3   3.0     S   1.50   5.0     S   27.5   30.2   27.3    ---  30.385  0.00  0.00   ---      ---    ---     ---   ---   ---   0.721   0.000   63.5    39   38.1   60.7   7.72  .0764    0.000   682    2    100.0   30 
12/08/18  7:30a   30.9   30.9   30.3    88   27.8   2.0     S   1.00   4.0     S   29.8   30.7   29.6    ---  30.390  0.00  0.00   ---      ---    ---     ---   ---   ---   0.710   0.000   66.1    38   39.7   63.3   7.55  .0760    0.000   676    2    100.0   30 
12/08/18  8:00a   34.0   34.0   30.9    89   31.1   2.0     S   1.00   4.0   SSE   33.2   33.8   33.0    ---  30.395  0.00  0.00   ---      ---    ---     ---   ---   ---   0.646   0.000   67.9    38   41.3   65.3   7.55  .0758    0.000   667    2    100.0   30 
12/08/18  8:30a   38.2   38.2   34.0    89   35.2   3.0   SSE   1.50   5.0     S   36.3   38.1   36.2    ---  30.396  0.00  0.00   ---      ---    ---     ---   ---   ---   0.558   0.000   69.6    38   42.9   66.8   7.55  .0755    0.000   669    2    100.0   30 
12/08/18  9:00a   41.6   41.6   38.2    85   37.4   3.0     S   1.50   5.0     S   40.2   41.4   40.0    ---  30.403  0.01  0.00   ---      ---    ---     ---   ---   ---   0.488   0.000   70.6    39   44.4   68.0   7.64  .0753    0.000   685    2    100.0   30 
12/08/18  9:30a   45.7   45.7   41.6    82   40.5   1.0     S   0.50   6.0   NNW   45.7   45.6   45.6    ---  30.405  0.00  0.00   ---      ---    ---     ---   ---   ---   0.402   0.000   71.1    39   44.9   68.7   7.63  .0752    0.000   685    2    100.0   30 
12/08/18 10:00a   49.6   49.6   45.7    69   39.8   3.0   ESE   1.50  13.0     E   49.2   49.2   48.8    ---  30.405  0.00  0.00   ---      ---    ---     ---   ---   ---   0.321   0.000   70.7    39   44.5   68.1   7.64  .0753    0.000   684    2    100.0   30 
12/08/18 10:30a   51.4   51.4   49.6    59   37.5   7.0   ESE   3.50  14.0     E   48.9   50.4   47.9    ---  30.407  0.00  0.00   ---      ---    ---     ---   ---   ---   0.283   0.000   70.6    39   44.4   68.0   7.64  .0753    0.000   684    2    100.0   30 
12/08/18 11:00a   51.9   52.0   51.4    57   37.1   8.0   ESE   4.00  15.0     E   48.8   50.8   47.7    ---  30.397  0.00  0.00   ---      ---    ---     ---   ---   ---   0.273   0.000   70.2    39   44.1   67.5   7.65  .0754    0.000   674    2    100.0   30 
12/08/18 11:30a   52.5   52.6   51.9    56   37.2  10.0     E   5.00  19.0     E   48.2   51.3   47.0    ---  30.390  0.00  0.00   ---      ---    ---     ---   ---   ---   0.260   0.000   70.1    38   43.3   67.3   7.55  .0754    0.000   679    2    100.0   30 
12/08/18 12:00p   52.3   52.5   52.2    57   37.5  10.0   ESE   5.00  18.0    SE   48.0   51.1   46.8    ---  30.384  0.00  0.00   ---      ---    ---     ---   ---   ---   0.265   0.000   71.2    38   44.3   68.7   7.50  .0752    0.000   685    2    100.0   30 
12/08/18 12:30p   53.2   53.3   52.3    54   37.0  11.0   ESE   5.50  19.0     E   48.4   51.8   47.0    ---  30.367  0.00  0.00   ---      ---    ---     ---   ---   ---   0.246   0.000   72.6    38   45.5   70.9   7.45  .0749    0.000   669    2    100.0   30 
12/08/18  1:00p   53.1   53.3   52.8    54   36.9  11.0     E   5.50  21.0     E   48.3   51.7   46.9    ---  30.357  0.00  0.00   ---      ---    ---     ---   ---   ---   0.248   0.000   72.6    38   45.5   70.9   7.45  .0749    0.000   670    2    100.0   30 
12/08/18  1:30p   53.8   53.9   53.1    53   37.1  11.0   ESE   5.50  19.0   ESE   49.2   52.3   47.7    ---  30.352  0.00  0.00   ---      ---    ---     ---   ---   ---   0.233   0.000   72.6    38   45.5   70.9   7.45  .0749    0.000   684    2    100.0   30 
12/08/18  2:00p   53.8   53.8   53.2    53   37.1  10.0     E   5.00  19.0     E   49.8   52.3   48.3    ---  30.350  0.00  0.00   ---      ---    ---     ---   ---   ---   0.233   0.000   72.8    38   45.7   71.2   7.44  .0748    0.000   683    2    100.0   30 
12/08/18  2:30p   53.5   53.9   53.5    52   36.3   9.0   ESE   4.50  17.0   ESE   50.0   51.9   48.4    ---  30.348  0.00  0.00   ---      ---    ---     ---   ---   ---   0.240   0.000   72.3    38   45.3   70.4   7.46  .0749    0.000   676    2    100.0   30 
12/08/18  3:00p   53.2   53.6   53.2    52   36.0   9.0   ESE   4.50  16.0   ESE   49.6   51.7   48.1    ---  30.346  0.00  0.00   ---      ---    ---     ---   ---   ---   0.246   0.000   71.8    39   45.5   69.7   7.61  .0750    0.000   674    2    100.0   30 
12/08/18  3:30p   52.6   53.3   52.6    54   36.4   8.0     E   4.00  16.0     E   49.6   51.2   48.2    ---  30.346  0.00  0.00   ---      ---    ---     ---   ---   ---   0.258   0.000   71.4    38   44.5   69.0   7.49  .0751    0.000   685    2    100.0   30 
12/08/18  4:00p   51.4   52.6   51.4    55   35.8   7.0   ESE   3.50  16.0     E   48.9   50.3   47.8    ---  30.348  0.00  0.00   ---      ---    ---     ---   ---   ---   0.283   0.000   72.3    39   45.9   70.5   7.60  .0749    0.000   685    2    100.0   30 
12/08/18  4:30p   49.5   51.4   49.5    59   35.8   5.0   ESE   2.50  11.0   ESE   47.6   48.7   46.8    ---  30.354  0.00  0.00   ---      ---    ---     ---   ---   ---   0.323   0.000   71.9    39   45.6   69.9   7.61  .0750    0.000   671    2    100.0   30 
12/08/18  5:00p   47.0   49.5   47.0    64   35.4   1.0    NW   0.50   5.0     E   47.0   46.3   46.3    ---  30.360  0.00  0.00   ---      ---    ---     ---   ---   ---   0.375   0.000   71.4    39   45.1   69.1   7.62  .0751    0.000   680    2    100.0   30 
12/08/18  5:30p   45.7   47.0   45.7    66   35.0   1.0   NNW   0.50   3.0   NNE   45.7   45.0   45.0    ---  30.366  0.00  0.00   ---      ---    ---     ---   ---   ---   0.402   0.000   71.8    38   44.8   69.6   7.48  .0750    0.000   685    2    100.0   30 
12/08/18  6:00p   44.6   45.7   44.6    68   34.7   1.0     N   0.50   5.0     E   44.6   44.0   44.0    ---  30.375  0.00  0.00   ---      ---    ---     ---   ---   ---   0.425   0.000   73.1    37   45.3   71.5   7.29  .0749    0.000   685    2    100.0   30 
12/08/18  6:30p   43.5   44.6   43.5    70   34.4   2.0   WSW   1.00   4.0    SE   43.5   43.0   43.0    ---  30.378  0.00  0.00   ---      ---    ---     ---   ---   ---   0.448   0.000   73.8    37   45.9   72.6   7.27  .0748    0.000   669    2    100.0   30 
12/08/18  7:00p   42.9   43.5   42.9    71   34.1   2.0   ESE   1.00   6.0     W   42.9   42.3   42.3    ---  30.387  0.00  0.00   ---      ---    ---     ---   ---   ---   0.460   0.000   73.3    39   46.8   72.0   7.58  .0748    0.000   680    2    100.0   30 
12/08/18  7:30p   42.1   43.1   42.1    73   34.1   1.0   SSE   0.50   4.0   ESE   42.1   41.6   41.6    ---  30.390  0.00  0.00   ---      ---    ---     ---   ---   ---   0.477   0.000   73.6    41   48.4   72.6   7.81  .0747    0.000   686    2    100.0   30 
12/08/18  8:00p   42.3   42.3   42.1    74   34.6   2.0   WSW   1.00   6.0     W   42.3   41.9   41.9    ---  30.390  0.00  0.00   ---      ---    ---     ---   ---   ---   0.473   0.000   73.5    41   48.4   72.5   7.81  .0748    0.000   684    2    100.0   30 
12/08/18  8:30p   42.2   42.3   42.2    73   34.2   2.0   WNW   1.00   6.0   WNW   42.2   41.7   41.7    ---  30.396  0.00  0.00   ---      ---    ---     ---   ---   ---   0.475   0.000   73.1    40   47.3   71.8   7.69  .0749    0.000   675    2    100.0   30 
12/08/18  9:00p   41.5   42.2   41.5    74   33.8   2.0   ENE   1.00   6.0   WNW   41.5   41.1   41.1    ---  30.405  0.00  0.00   ---      ---    ---     ---   ---   ---   0.490   0.000   74.2    39   47.6   73.2   7.57  .0747    0.000   668    2    100.0   30 
12/08/18  9:30p   41.1   41.5   40.8    75   33.8   2.0     W   1.00   7.0     W   41.0   40.7   40.6    ---  30.411  0.00  0.00   ---      ---    ---     ---   ---   ---   0.498   0.000   73.0    40   47.2   71.7   7.69  .0749    0.000   680    2    100.0   30 
12/08/18 10:00p   40.6   41.2   40.6    75   33.3   2.0     E   1.00   7.0   ENE   40.5   40.2   40.1    ---  30.418  0.00  0.00   ---      ---    ---     ---   ---   ---   0.508   0.000   72.4    41   47.4   70.8   7.85  .0750    0.000   685    2    100.0   30 
12/08/18 10:30p   39.9   40.6   39.9    76   32.9   1.0   WNW   0.50   5.0   WSW   39.9   39.4   39.4    ---  30.421  0.00  0.00   ---      ---    ---     ---   ---   ---   0.523   0.000   72.1    41   47.1   70.4   7.87  .0751    0.000   685    2    100.0   30 
12/08/18 11:00p   39.6   40.1   39.6    76   32.7   2.0     E   1.00   8.0     E   39.3   39.2   38.9    ---  30.421  0.00  0.00   ---      ---    ---     ---   ---   ---   0.529   0.000   71.6    41   46.6   69.6   7.89  .0751    0.000   679    2    100.0   30 
12/08/18 11:30p   39.3   39.6   39.2    78   33.0   2.0   WNW   1.00   5.0     W   39.0   38.9   38.6    ---  30.417  0.00  0.00   ---      ---    ---     ---   ---   ---   0.535   0.000   70.9    41   46.0   68.6   7.91  .0753    0.000   669    2    100.0   30 
12/09/18 12:00a   40.3   40.6   39.3    77   33.7   2.0     W   1.00   7.0     W   40.1   39.9   39.7    ---  30.414  0.00  0.00   ---      ---    ---     ---   ---   ---   0.515   0.000   70.4    41   45.6   67.9   7.93  .0753    0.000   670    2    100.0   30 
12/09/18 12:30a   39.3   40.3   39.3    76   32.4   1.0    NW   0.50   4.0   WNW   39.3   38.9   38.9    ---  30.401  0.00  0.00   ---      ---    ---     ---   ---   ---   0.535   0.000   69.9    40   44.5   67.2   7.75  .0754    0.000   505    2     75.7   30 
12/09/18  1:00a   38.3   39.3   38.3    77   31.7   2.0     E   1.00   7.0   ESE   37.9   37.9   37.5    ---  30.403  0.00  0.00   ---      ---    ---     ---   ---   ---   0.556   0.000   69.2    40   43.8   66.7   7.77  .0755    0.000   682    2    100.0   30 
12/09/18  1:30a   39.2   39.2   38.0    76   32.3   2.0   WSW   1.00   5.0     W   38.9   38.8   38.5    ---  30.395  0.00  0.00   ---      ---    ---     ---   ---   ---   0.537   0.000   68.7    40   43.4   66.3   7.78  .0756    0.000   680    2    100.0   30 
12/09/18  2:00a   38.3   39.2   38.3    75   31.1   2.0     W   1.00   8.0     W   37.9   37.9   37.5    ---  30.398  0.00  0.00   ---      ---    ---     ---   ---   ---   0.556   0.000   68.2    40   42.9   65.8   7.79  .0757    0.000   669    2    100.0   30 
12/09/18  2:30a   40.5   40.5   38.3    71   31.8   2.0     W   1.00   5.0     W   40.3   39.9   39.7    ---  30.394  0.00  0.00   ---      ---    ---     ---   ---   ---   0.510   0.000   67.9    40   42.7   65.5   7.79  .0757    0.000   679    2    100.0   30 
12/09/18  3:00a   41.3   41.6   40.5    67   31.2   2.0     W   1.00   6.0    NW   41.2   40.6   40.5    ---  30.387  0.00  0.00   ---      ---    ---     ---   ---   ---   0.494   0.000   67.5    40   42.3   65.1   7.80  .0758    0.000   685    2    100.0   30 
12/09/18  3:30a   41.3   41.3   40.6    68   31.5   3.0     W   1.50   7.0   WNW   39.8   40.7   39.2    ---  30.384  0.00  0.00   ---      ---    ---     ---   ---   ---   0.494   0.000   67.0    40   41.9   64.5   7.81  .0758    0.000   683    2    100.0   30 
12/09/18  4:00a   41.6   41.8   41.3    67   31.4   2.0   WNW   1.00   6.0     E   41.6   40.9   40.9    ---  30.374  0.00  0.00   ---      ---    ---     ---   ---   ---   0.488   0.000   66.7    40   41.6   64.2   7.82  .0759    0.000   686    2    100.0   30 
12/09/18  4:30a   42.6   42.8   41.6    65   31.7   3.0   WNW   1.50   8.0     W   41.3   41.9   40.6    ---  30.371  0.00  0.00   ---      ---    ---     ---   ---   ---   0.467   0.000   66.4    40   41.3   63.8   7.82  .0759    0.000   666    2     99.9   30 
12/09/18  5:00a   42.5   42.6   42.5    66   31.9   2.0    NW   1.00   5.0   WNW   42.5   41.8   41.8    ---  30.377  0.00  0.00   ---      ---    ---     ---   ---   ---   0.469   0.000   66.1    40   41.1   63.5   7.83  .0760    0.000   677    2    100.0   30 
12/09/18  5:30a   41.9   42.5   41.9    67   31.7   2.0    NW   1.00   6.0    NE   41.9   41.2   41.2    ---  30.378  0.00  0.00   ---      ---    ---     ---   ---   ---   0.481   0.000   65.9    40   40.9   63.3   7.83  .0760    0.000   683    2    100.0   30 
12/09/18  6:00a   41.2   41.9   41.2    68   31.4   2.0     N   1.00   6.0    NE   41.1   40.6   40.5    ---  30.385  0.00  0.00   ---      ---    ---     ---   ---   ---   0.496   0.000   65.6    40   40.6   63.0   7.84  .0761    0.000   683    2    100.0   30 
12/09/18  6:30a   41.1   41.5   41.1    69   31.7   2.0    NE   1.00   6.0   NNE   41.0   40.5   40.4    ---  30.393  0.00  0.00   ---      ---    ---     ---   ---   ---   0.498   0.000   65.3    40   40.3   62.7   7.84  .0762    0.000   675    2    100.0   30 
12/09/18  7:00a   41.1   41.2   40.9    69   31.7   2.0    NE   1.00   7.0   ESE   41.0   40.5   40.4    ---  30.402  0.00  0.00   ---      ---    ---     ---   ---   ---   0.498   0.000   65.1    40   40.2   62.5   7.85  .0762    0.000   671    2    100.0   30 
12/09/18  7:30a   42.3   42.3   41.1    68   32.5   2.0     W   1.00   7.0    NE   42.3   41.7   41.7    ---  30.403  0.00  0.00   ---      ---    ---     ---   ---   ---   0.473   0.000   66.9    40   41.8   64.4   7.81  .0759    0.000   686    2    100.0   30 
12/09/18  8:00a   43.9   43.9   42.3    66   33.3   2.0    NE   1.00   6.0     E   43.9   43.2   43.2    ---  30.408  0.00  0.00   ---      ---    ---     ---   ---   ---   0.440   0.000   68.4    39   42.5   65.9   7.68  .0757    0.000   684    2    100.0   30 
12/09/18  8:30a   45.1   45.1   43.9    64   33.6   2.0   ENE   1.00   7.0     E   45.1   44.4   44.4    ---  30.407  0.00  0.00   ---      ---    ---     ---   ---   ---   0.415   0.000   69.0    38   42.3   66.4   7.55  .0756    0.000   684    2    100.0   30 
12/09/18  9:00a   47.0   47.0   45.1    62   34.6   1.0   NNW   0.50   4.0   NNW   47.0   46.2   46.2    ---  30.414  0.00  0.00   ---      ---    ---     ---   ---   ---   0.375   0.000   70.1    38   43.3   67.3   7.55  .0754    0.000   670    2    100.0   30 
12/09/18  9:30a   49.4   49.4   47.0    59   35.7   4.0     E   2.00   9.0     E   48.2   48.6   47.4    ---  30.417  0.00  0.00   ---      ---    ---     ---   ---   ---   0.325   0.000   71.6    39   45.3   69.4   7.62  .0752    0.000   675    2    100.0   30 
12/09/18 10:00a   51.0   51.1   49.4    52   34.0   9.0    SE   4.50  18.0     E   47.1   49.8   45.9    ---  30.413  0.00  0.00   ---      ---    ---     ---   ---   ---   0.292   0.000   72.1    39   45.8   70.2   7.61  .0751    0.000   684    2    100.0   30 
12/09/18 10:30a   51.4   51.6   50.8    50   33.4  11.0   ESE   5.50  23.0     E   46.4   50.0   45.0    ---  30.403  0.00  0.00   ---      ---    ---     ---   ---   ---   0.283   0.000   71.9    39   45.6   69.9   7.61  .0751    0.000   564    2     84.6   30 
12/09/18 11:00a   51.0   51.6   51.0    52   34.0   8.0    SE   4.00  18.0     E   47.7   49.8   46.5    ---  30.393  0.00  0.00   ---      ---    ---     ---   ---   ---   0.292   0.000   71.4    39   45.1   69.1   7.62  .0752    0.000   674    2    100.0   30 
12/09/18 11:30a   51.7   51.7   50.8    51   34.1   9.0    SE   4.50  19.0     E   47.9   50.3   46.5    ---  30.379  0.00  0.00   ---      ---    ---     ---   ---   ---   0.277   0.000   71.1    39   44.9   68.7   7.63  .0752    0.000   679    2    100.0   30 
12/09/18 12:00p   52.2   52.6   51.7    50   34.1  11.0   ESE   5.50  23.0     E   47.3   50.7   45.8    ---  30.365  0.00  0.00   ---      ---    ---     ---   ---   ---   0.267   0.000   70.7    39   44.5   68.1   7.64  .0752    0.000   683    2    100.0   30 
12/09/18 12:30p   52.9   53.2   52.2    49   34.2  10.0    SE   5.00  23.0   ESE   48.7   51.3   47.1    ---  30.350  0.00  0.00   ---      ---    ---     ---   ---   ---   0.252   0.000   70.7    39   44.5   68.1   7.64  .0752    0.000   667    2    100.0   30 
12/09/18  1:00p   52.9   52.9   52.3    46   32.7   9.0   ESE   4.50  17.0     E   49.3   51.2   47.6    ---  30.328  0.00  0.00   ---      ---    ---     ---   ---   ---   0.252   0.000   70.7    39   44.5   68.1   7.64  .0751    0.000   667    2    100.0   30 
12/09/18  1:30p   53.2   53.2   52.9    46   32.9  10.0   ESE   5.00  20.0     E   49.0   51.4   47.2    ---  30.318  0.00  0.00   ---      ---    ---     ---   ---   ---   0.246   0.000   72.1    38   45.1   70.1   7.47  .0749    0.000   684    2    100.0   30